sensor_id;sensor_type;location;lat;lon;timestamp;pressure;altitude;pressure_sealevel;temperature;humidity
68230;BME280;55048;52.220;5.160;2023-02-01T00:01:19;101741.66;;;6.30;74.07
68230;BME280;55048;52.220;5.160;2023-02-01T00:03:45;101657.75;;;5.81;73.93
68230;BME280;55048;52.220;5.160;2023-02-01T00:06:10;101797.13;;;6.66;74.08
68230;BME280;55048;52.220;5.160;2023-02-01T00:08:36;101800.31;;;6.76;73.81
68230;BME280;55048;52.220;5.160;2023-02-01T00:11:07;101856.28;;;7.01;73.84
68230;BME280;55048;52.220;5.160;2023-02-01T00:13:34;101851.50;;;7.11;73.64
68230;BME280;55048;52.220;5.160;2023-02-01T00:16:27;101842.50;;;7.06;74.02
68230;BME280;55048;52.220;5.160;2023-02-01T00:21:24;101740.22;;;6.49;73.47
68230;BME280;55048;52.220;5.160;2023-02-01T00:23:49;101782.06;;;6.81;73.34
68230;BME280;55048;52.220;5.160;2023-02-01T00:26:17;101843.25;;;7.21;73.05
68230;BME280;55048;52.220;5.160;2023-02-01T00:28:44;101742.06;;;6.48;72.87
68230;BME280;55048;52.220;5.160;2023-02-01T00:31:09;101768.59;;;6.76;72.74
68230;BME280;55048;52.220;5.160;2023-02-01T00:33:35;101801.44;;;6.88;72.77
68230;BME280;55048;52.220;5.160;2023-02-01T00:36:02;101837.19;;;7.27;72.54
68230;BME280;55048;52.220;5.160;2023-02-01T00:38:29;101822.28;;;7.20;72.46
68230;BME280;55048;52.220;5.160;2023-02-01T00:41:02;101827.13;;;7.16;72.44
68230;BME280;55048;52.220;5.160;2023-02-01T00:43:28;101762.72;;;6.81;71.85
68230;BME280;55048;52.220;5.160;2023-02-01T00:45:53;101700.59;;;6.49;72.13
68230;BME280;55048;52.220;5.160;2023-02-01T00:48:19;101805.34;;;7.14;72.10
68230;BME280;55048;52.220;5.160;2023-02-01T00:50:44;101824.72;;;7.21;71.74
68230;BME280;55048;52.220;5.160;2023-02-01T00:53:10;101837.88;;;7.36;71.71
68230;BME280;55048;52.220;5.160;2023-02-01T00:55:37;101788.00;;;6.90;71.96
68230;BME280;55048;52.220;5.160;2023-02-01T00:58:03;101825.44;;;7.30;71.98
68230;BME280;55048;52.220;5.160;2023-02-01T01:00:32;101731.69;;;6.68;72.16
68230;BME280;55048;52.220;5.160;2023-02-01T01:02:57;101788.66;;;6.92;71.42
68230;BME280;55048;52.220;5.160;2023-02-01T01:05:23;101822.44;;;7.39;71.79
68230;BME280;55048;52.220;5.160;2023-02-01T01:07:49;101560.69;;;5.61;71.32
68230;BME280;55048;52.220;5.160;2023-02-01T01:10:15;101754.53;;;6.97;71.32
68230;BME280;55048;52.220;5.160;2023-02-01T01:12:41;101639.56;;;6.22;71.30
68230;BME280;55048;52.220;5.160;2023-02-01T01:15:07;101819.00;;;7.39;71.13
68230;BME280;55048;52.220;5.160;2023-02-01T01:17:32;101806.63;;;7.18;71.04
68230;BME280;55048;52.220;5.160;2023-02-01T01:19:58;101787.81;;;7.13;70.98
68230;BME280;55048;52.220;5.160;2023-02-01T01:22:23;101796.28;;;7.23;71.02
68230;BME280;55048;52.220;5.160;2023-02-01T01:24:49;101706.63;;;6.64;70.92
68230;BME280;55048;52.220;5.160;2023-02-01T01:27:14;101738.94;;;6.81;71.13
68230;BME280;55048;52.220;5.160;2023-02-01T01:29:40;101760.84;;;6.96;70.54
68230;BME280;55048;52.220;5.160;2023-02-01T01:32:05;101724.88;;;6.80;70.62
68230;BME280;55048;52.220;5.160;2023-02-01T01:34:31;101784.22;;;7.21;70.98
68230;BME280;55048;52.220;5.160;2023-02-01T01:36:56;101778.69;;;7.15;70.43
68230;BME280;55048;52.220;5.160;2023-02-01T01:39:21;101775.16;;;7.08;70.52
68230;BME280;55048;52.220;5.160;2023-02-01T01:41:47;101818.41;;;7.44;71.01
68230;BME280;55048;52.220;5.160;2023-02-01T01:47:19;101782.72;;;7.33;71.06
68230;BME280;55048;52.220;5.160;2023-02-01T01:49:45;101755.09;;;7.14;71.03
68230;BME280;55048;52.220;5.160;2023-02-01T01:52:11;101772.47;;;7.23;71.21
68230;BME280;55048;52.220;5.160;2023-02-01T01:54:49;101773.75;;;7.34;71.20
68230;BME280;55048;52.220;5.160;2023-02-01T01:57:33;101757.66;;;7.29;71.56
68230;BME280;55048;52.220;5.160;2023-02-01T02:00:16;101724.34;;;7.13;71.30
68230;BME280;55048;52.220;5.160;2023-02-01T02:02:46;101794.50;;;7.58;71.41
68230;BME280;55048;52.220;5.160;2023-02-01T02:05:13;101720.69;;;7.14;71.77
68230;BME280;55048;52.220;5.160;2023-02-01T02:07:43;101714.59;;;7.13;71.43
68230;BME280;55048;52.220;5.160;2023-02-01T02:10:11;101698.63;;;7.00;71.72
68230;BME280;55048;52.220;5.160;2023-02-01T02:12:42;101750.19;;;7.39;71.78
68230;BME280;55048;52.220;5.160;2023-02-01T02:15:12;101746.66;;;7.32;72.50
68230;BME280;55048;52.220;5.160;2023-02-01T02:20:38;101769.66;;;7.59;72.06
68230;BME280;55048;52.220;5.160;2023-02-01T02:34:55;101698.75;;;7.20;71.79
68230;BME280;55048;52.220;5.160;2023-02-01T02:37:39;101760.72;;;7.60;71.57
68230;BME280;55048;52.220;5.160;2023-02-01T02:40:31;101770.16;;;7.70;71.65
68230;BME280;55048;52.220;5.160;2023-02-01T02:43:01;101764.22;;;7.67;71.44
68230;BME280;55048;52.220;5.160;2023-02-01T02:45:53;101732.53;;;7.46;71.91
68230;BME280;55048;52.220;5.160;2023-02-01T02:48:46;101735.81;;;7.55;71.28
68230;BME280;55048;52.220;5.160;2023-02-01T02:54:15;101625.63;;;7.06;71.53
68230;BME280;55048;52.220;5.160;2023-02-01T02:57:05;101709.94;;;7.50;71.97
68230;BME280;55048;52.220;5.160;2023-02-01T02:59:52;101672.84;;;7.37;71.68
68230;BME280;55048;52.220;5.160;2023-02-01T03:02:37;101727.13;;;7.61;71.54
68230;BME280;55048;52.220;5.160;2023-02-01T03:05:22;101700.44;;;7.28;72.44
68230;BME280;55048;52.220;5.160;2023-02-01T03:08:15;101724.84;;;7.51;72.45
68230;BME280;55048;52.220;5.160;2023-02-01T03:10:55;101705.75;;;7.28;72.37
68230;BME280;55048;52.220;5.160;2023-02-01T03:16:41;101690.84;;;7.27;73.13
68230;BME280;55048;52.220;5.160;2023-02-01T03:19:19;101719.69;;;7.43;73.19
68230;BME280;55048;52.220;5.160;2023-02-01T03:21:50;101721.09;;;7.46;73.14
68230;BME280;55048;52.220;5.160;2023-02-01T03:24:31;101632.84;;;6.90;73.47
68230;BME280;55048;52.220;5.160;2023-02-01T03:28:02;101694.03;;;7.15;73.72
68230;BME280;55048;52.220;5.160;2023-02-01T03:30:13;101733.06;;;7.35;73.80
68230;BME280;55048;52.220;5.160;2023-02-01T03:32:45;101577.91;;;6.36;73.37
68230;BME280;55048;52.220;5.160;2023-02-01T03:37:53;101625.50;;;6.64;73.89
68230;BME280;55048;52.220;5.160;2023-02-01T03:40:22;101694.75;;;7.03;73.58
68230;BME280;55048;52.220;5.160;2023-02-01T03:42:52;101716.25;;;7.21;73.65
68230;BME280;55048;52.220;5.160;2023-02-01T03:45:29;101676.44;;;7.01;73.69
68230;BME280;55048;52.220;5.160;2023-02-01T03:48:00;101729.56;;;7.28;73.67
68230;BME280;55048;52.220;5.160;2023-02-01T03:50:29;101644.00;;;6.64;73.23
68230;BME280;55048;52.220;5.160;2023-02-01T03:53:03;101723.84;;;7.31;73.67
68230;BME280;55048;52.220;5.160;2023-02-01T03:55:31;101712.59;;;7.22;73.39
68230;BME280;55048;52.220;5.160;2023-02-01T03:58:05;101708.72;;;7.18;72.82
68230;BME280;55048;52.220;5.160;2023-02-01T04:00:31;101696.72;;;7.22;72.42
68230;BME280;55048;52.220;5.160;2023-02-01T04:02:57;101684.03;;;7.11;72.99
68230;BME280;55048;52.220;5.160;2023-02-01T04:05:23;101739.94;;;7.57;72.38
68230;BME280;55048;52.220;5.160;2023-02-01T04:07:57;101653.84;;;6.99;72.44
68230;BME280;55048;52.220;5.160;2023-02-01T04:10:22;101679.09;;;7.01;72.40
68230;BME280;55048;52.220;5.160;2023-02-01T04:12:48;101709.13;;;7.22;72.43
68230;BME280;55048;52.220;5.160;2023-02-01T04:15:13;101736.56;;;7.42;72.92
68230;BME280;55048;52.220;5.160;2023-02-01T04:17:39;101738.13;;;7.64;72.43
68230;BME280;55048;52.220;5.160;2023-02-01T04:20:05;101721.31;;;7.44;72.60
68230;BME280;55048;52.220;5.160;2023-02-01T04:22:30;101612.53;;;6.70;72.54
68230;BME280;55048;52.220;5.160;2023-02-01T04:24:56;101739.25;;;7.49;73.13
68230;BME280;55048;52.220;5.160;2023-02-01T04:27:21;101743.81;;;7.61;72.89
68230;BME280;55048;52.220;5.160;2023-02-01T04:29:47;101755.22;;;7.62;72.76
68230;BME280;55048;52.220;5.160;2023-02-01T04:32:15;101754.59;;;7.60;72.99
68230;BME280;55048;52.220;5.160;2023-02-01T04:34:42;101694.28;;;7.21;73.17
68230;BME280;55048;52.220;5.160;2023-02-01T04:37:08;101742.53;;;7.51;73.13
68230;BME280;55048;52.220;5.160;2023-02-01T04:39:33;101685.28;;;7.15;73.40
68230;BME280;55048;52.220;5.160;2023-02-01T04:41:59;101699.78;;;7.19;73.38
68230;BME280;55048;52.220;5.160;2023-02-01T04:44:24;101642.91;;;6.80;73.12
68230;BME280;55048;52.220;5.160;2023-02-01T04:46:49;101716.75;;;7.31;73.54
68230;BME280;55048;52.220;5.160;2023-02-01T04:49:15;101688.72;;;7.09;73.29
68230;BME280;55048;52.220;5.160;2023-02-01T04:51:41;101702.84;;;7.23;73.54
68230;BME280;55048;52.220;5.160;2023-02-01T04:54:08;101700.59;;;7.20;73.52
68230;BME280;55048;52.220;5.160;2023-02-01T04:56:33;101697.88;;;7.13;73.91
68230;BME280;55048;52.220;5.160;2023-02-01T04:59:00;101663.56;;;6.92;73.21
68230;BME280;55048;52.220;5.160;2023-02-01T05:01:27;101625.13;;;6.68;73.49
68230;BME280;55048;52.220;5.160;2023-02-01T05:03:53;101681.38;;;7.04;73.36
68230;BME280;55048;52.220;5.160;2023-02-01T05:06:18;101616.53;;;6.59;73.43
68230;BME280;55048;52.220;5.160;2023-02-01T05:08:44;101729.34;;;7.29;73.71
68230;BME280;55048;52.220;5.160;2023-02-01T05:11:09;101661.72;;;6.92;73.31
68230;BME280;55048;52.220;5.160;2023-02-01T05:13:55;101710.72;;;7.16;73.64
68230;BME280;55048;52.220;5.160;2023-02-01T05:16:20;101672.16;;;7.00;73.38
68230;BME280;55048;52.220;5.160;2023-02-01T05:18:46;101717.63;;;7.38;73.72
68230;BME280;55048;52.220;5.160;2023-02-01T05:21:11;101591.72;;;6.60;73.37
68230;BME280;55048;52.220;5.160;2023-02-01T05:23:36;101563.44;;;6.32;73.87
68230;BME280;55048;52.220;5.160;2023-02-01T05:26:22;101674.25;;;7.05;73.59
68230;BME280;55048;52.220;5.160;2023-02-01T05:28:47;101747.16;;;7.42;73.92
68230;BME280;55048;52.220;5.160;2023-02-01T05:31:13;101705.44;;;7.16;74.16
68230;BME280;55048;52.220;5.160;2023-02-01T05:33:38;101660.00;;;6.78;74.13
68230;BME280;55048;52.220;5.160;2023-02-01T05:36:03;101755.69;;;7.37;74.20
68230;BME280;55048;52.220;5.160;2023-02-01T05:38:29;101717.72;;;7.24;74.09
68230;BME280;55048;52.220;5.160;2023-02-01T05:40:57;101673.94;;;6.93;74.00
68230;BME280;55048;52.220;5.160;2023-02-01T05:43:22;101743.13;;;7.46;73.67
68230;BME280;55048;52.220;5.160;2023-02-01T05:45:48;101724.25;;;7.28;74.00
68230;BME280;55048;52.220;5.160;2023-02-01T05:48:13;101710.19;;;7.27;74.13
68230;BME280;55048;52.220;5.160;2023-02-01T05:50:39;101752.03;;;7.38;74.30
68230;BME280;55048;52.220;5.160;2023-02-01T05:53:07;101664.25;;;6.79;74.45
68230;BME280;55048;52.220;5.160;2023-02-01T05:55:33;101724.50;;;7.33;74.68
68230;BME280;55048;52.220;5.160;2023-02-01T05:57:58;101716.34;;;7.34;74.37
68230;BME280;55048;52.220;5.160;2023-02-01T06:00:24;101686.31;;;7.14;74.55
68230;BME280;55048;52.220;5.160;2023-02-01T06:02:49;101681.72;;;7.01;74.97
68230;BME280;55048;52.220;5.160;2023-02-01T06:05:15;101657.78;;;6.81;74.52
68230;BME280;55048;52.220;5.160;2023-02-01T06:07:40;101751.25;;;7.45;75.03
68230;BME280;55048;52.220;5.160;2023-02-01T06:10:06;101753.06;;;7.44;74.38
68230;BME280;55048;52.220;5.160;2023-02-01T06:12:32;101673.94;;;6.93;74.31
68230;BME280;55048;52.220;5.160;2023-02-01T06:14:57;101712.03;;;7.27;74.12
68230;BME280;55048;52.220;5.160;2023-02-01T06:17:24;101676.25;;;7.03;74.18
68230;BME280;55048;52.220;5.160;2023-02-01T06:19:49;101741.00;;;7.35;74.26
68230;BME280;55048;52.220;5.160;2023-02-01T06:22:15;101704.75;;;7.07;74.28
68230;BME280;55048;52.220;5.160;2023-02-01T06:24:40;101707.41;;;7.07;74.64
68230;BME280;55048;52.220;5.160;2023-02-01T06:27:06;101536.94;;;5.98;74.68
68230;BME280;55048;52.220;5.160;2023-02-01T06:29:32;101741.94;;;7.27;74.55
68230;BME280;55048;52.220;5.160;2023-02-01T06:31:58;101630.22;;;6.48;74.81
68230;BME280;55048;52.220;5.160;2023-02-01T06:34:24;101528.50;;;5.87;74.56
68230;BME280;55048;52.220;5.160;2023-02-01T06:36:49;101656.47;;;6.71;74.66
68230;BME280;55048;52.220;5.160;2023-02-01T06:39:15;101655.06;;;6.75;74.71
68230;BME280;55048;52.220;5.160;2023-02-01T06:41:48;101718.88;;;6.93;74.72
68230;BME280;55048;52.220;5.160;2023-02-01T06:44:14;101587.75;;;6.21;74.81
68230;BME280;55048;52.220;5.160;2023-02-01T06:46:39;101522.88;;;5.76;74.42
68230;BME280;55048;52.220;5.160;2023-02-01T06:49:05;101682.31;;;6.75;74.86
68230;BME280;55048;52.220;5.160;2023-02-01T06:51:31;101758.84;;;7.26;74.53
68230;BME280;55048;52.220;5.160;2023-02-01T06:53:56;101712.16;;;6.90;74.86
68230;BME280;55048;52.220;5.160;2023-02-01T06:56:22;101728.06;;;7.19;74.40
68230;BME280;55048;52.220;5.160;2023-02-01T06:58:48;101719.38;;;7.03;74.68
68230;BME280;55048;52.220;5.160;2023-02-01T07:01:14;101749.06;;;7.27;75.16
68230;BME280;55048;52.220;5.160;2023-02-01T07:03:41;101742.38;;;7.31;74.91
68230;BME280;55048;52.220;5.160;2023-02-01T07:06:07;101745.69;;;7.33;75.10
68230;BME280;55048;52.220;5.160;2023-02-01T07:08:34;101737.06;;;7.24;74.69
68230;BME280;55048;52.220;5.160;2023-02-01T07:11:08;101669.78;;;6.84;75.04
68230;BME280;55048;52.220;5.160;2023-02-01T07:13:34;101685.72;;;6.90;75.19
68230;BME280;55048;52.220;5.160;2023-02-01T07:16:04;101741.13;;;7.27;75.57
68230;BME280;55048;52.220;5.160;2023-02-01T07:18:30;101745.91;;;7.38;75.11
68230;BME280;55048;52.220;5.160;2023-02-01T07:20:56;101749.13;;;7.33;75.36
68230;BME280;55048;52.220;5.160;2023-02-01T07:23:22;101746.53;;;7.40;75.26
68230;BME280;55048;52.220;5.160;2023-02-01T07:25:48;101700.72;;;7.11;74.99
68230;BME280;55048;52.220;5.160;2023-02-01T07:28:13;101673.66;;;6.81;74.89
68230;BME280;55048;52.220;5.160;2023-02-01T07:30:39;101754.28;;;7.41;75.33
68230;BME280;55048;52.220;5.160;2023-02-01T07:33:06;101668.78;;;6.85;75.35
68230;BME280;55048;52.220;5.160;2023-02-01T07:35:32;101586.16;;;6.27;74.98
68230;BME280;55048;52.220;5.160;2023-02-01T07:37:57;101752.03;;;7.38;75.25
68230;BME280;55048;52.220;5.160;2023-02-01T07:40:24;101758.69;;;7.34;75.25
68230;BME280;55048;52.220;5.160;2023-02-01T07:42:56;101754.66;;;7.38;75.13
68230;BME280;55048;52.220;5.160;2023-02-01T07:45:22;101618.44;;;6.44;75.07
68230;BME280;55048;52.220;5.160;2023-02-01T07:47:49;101718.38;;;7.04;75.09
68230;BME280;55048;52.220;5.160;2023-02-01T07:50:16;101731.44;;;7.12;75.33
68230;BME280;55048;52.220;5.160;2023-02-01T07:52:41;101701.03;;;6.95;74.89
68230;BME280;55048;52.220;5.160;2023-02-01T07:55:07;101656.69;;;6.76;74.53
68230;BME280;55048;52.220;5.160;2023-02-01T07:57:33;101645.13;;;6.34;74.94
68230;BME280;55048;52.220;5.160;2023-02-01T07:59:58;101710.50;;;6.89;75.00
68230;BME280;55048;52.220;5.160;2023-02-01T08:02:42;101770.91;;;7.35;75.12
68230;BME280;55048;52.220;5.160;2023-02-01T08:05:08;101784.97;;;7.36;75.04
68230;BME280;55048;52.220;5.160;2023-02-01T08:07:33;101727.25;;;6.97;75.41
68230;BME280;55048;52.220;5.160;2023-02-01T08:09:59;101704.25;;;6.90;75.58
68230;BME280;55048;52.220;5.160;2023-02-01T08:12:25;101765.03;;;7.40;75.12
68230;BME280;55048;52.220;5.160;2023-02-01T08:14:52;101757.09;;;7.40;75.30
68230;BME280;55048;52.220;5.160;2023-02-01T08:17:18;101693.69;;;6.97;74.90
68230;BME280;55048;52.220;5.160;2023-02-01T08:19:44;101716.47;;;7.20;75.26
68230;BME280;55048;52.220;5.160;2023-02-01T08:22:09;101722.22;;;7.30;74.68
68230;BME280;55048;52.220;5.160;2023-02-01T08:24:34;101729.38;;;7.36;74.82
68230;BME280;55048;52.220;5.160;2023-02-01T08:27:01;101750.50;;;7.57;74.52
68230;BME280;55048;52.220;5.160;2023-02-01T08:29:28;101761.88;;;7.51;74.67
68230;BME280;55048;52.220;5.160;2023-02-01T08:31:54;101746.00;;;7.51;75.01
68230;BME280;55048;52.220;5.160;2023-02-01T08:34:20;101690.53;;;7.08;74.84
68230;BME280;55048;52.220;5.160;2023-02-01T08:36:45;101549.22;;;6.33;74.90
68230;BME280;55048;52.220;5.160;2023-02-01T08:39:11;101565.66;;;6.57;74.98
68230;BME280;55048;52.220;5.160;2023-02-01T08:41:36;101748.09;;;7.62;74.66
68230;BME280;55048;52.220;5.160;2023-02-01T08:44:02;101659.50;;;7.24;74.51
68230;BME280;55048;52.220;5.160;2023-02-01T08:46:27;101646.69;;;7.27;73.80
68230;BME280;55048;52.220;5.160;2023-02-01T08:48:53;101704.69;;;7.57;73.89
68230;BME280;55048;52.220;5.160;2023-02-01T08:51:20;101698.38;;;7.51;73.84
68230;BME280;55048;52.220;5.160;2023-02-01T08:53:47;101757.84;;;7.90;73.66
68230;BME280;55048;52.220;5.160;2023-02-01T08:56:14;101741.94;;;7.83;73.38
68230;BME280;55048;52.220;5.160;2023-02-01T08:58:40;101572.25;;;6.96;73.20
68230;BME280;55048;52.220;5.160;2023-02-01T09:01:11;101741.84;;;8.11;72.92
68230;BME280;55048;52.220;5.160;2023-02-01T09:03:38;101733.31;;;8.16;72.79
68230;BME280;55048;52.220;5.160;2023-02-01T09:06:09;101636.72;;;7.64;72.61
68230;BME280;55048;52.220;5.160;2023-02-01T09:08:35;101637.72;;;7.63;72.53
68230;BME280;55048;52.220;5.160;2023-02-01T09:11:03;101657.53;;;7.74;72.77
68230;BME280;55048;52.220;5.160;2023-02-01T09:13:29;101694.31;;;8.03;72.15
68230;BME280;55048;52.220;5.160;2023-02-01T09:15:56;101635.25;;;7.55;71.73
68230;BME280;55048;52.220;5.160;2023-02-01T09:18:22;101652.03;;;7.75;71.86
68230;BME280;55048;52.220;5.160;2023-02-01T09:20:47;101690.44;;;8.06;72.06
68230;BME280;55048;52.220;5.160;2023-02-01T09:23:13;101686.75;;;8.00;71.45
68230;BME280;55048;52.220;5.160;2023-02-01T09:25:38;101647.28;;;7.57;71.83
68230;BME280;55048;52.220;5.160;2023-02-01T09:28:05;101744.06;;;8.08;71.80
68230;BME280;55048;52.220;5.160;2023-02-01T09:30:35;101719.41;;;8.07;71.70
68230;BME280;55048;52.220;5.160;2023-02-01T09:33:02;101751.22;;;8.21;72.06
68230;BME280;55048;52.220;5.160;2023-02-01T09:35:27;101684.66;;;7.82;71.57
68230;BME280;55048;52.220;5.160;2023-02-01T09:37:53;101720.41;;;8.06;71.51
68230;BME280;55048;52.220;5.160;2023-02-01T09:40:19;101655.25;;;7.64;71.81
68230;BME280;55048;52.220;5.160;2023-02-01T09:48:00;101631.06;;;7.32;71.52
68230;BME280;55048;52.220;5.160;2023-02-01T09:50:36;101693.63;;;7.88;71.76
68230;BME280;55048;52.220;5.160;2023-02-01T09:53:27;101720.38;;;8.00;71.84
68230;BME280;55048;52.220;5.160;2023-02-01T09:55:59;101721.25;;;8.07;71.34
68230;BME280;55048;52.220;5.160;2023-02-01T09:58:32;101702.88;;;7.99;71.34
68230;BME280;55048;52.220;5.160;2023-02-01T10:01:02;101733.91;;;8.11;71.67
68230;BME280;55048;52.220;5.160;2023-02-01T10:03:31;101728.41;;;8.19;71.70
68230;BME280;55048;52.220;5.160;2023-02-01T10:06:22;101706.34;;;7.99;73.41
68230;BME280;55048;52.220;5.160;2023-02-01T10:12:08;101726.53;;;8.07;74.81
68230;BME280;55048;52.220;5.160;2023-02-01T10:28:40;101709.25;;;7.70;76.57
68230;BME280;55048;52.220;5.160;2023-02-01T10:31:08;101748.44;;;7.87;76.45
68230;BME280;55048;52.220;5.160;2023-02-01T10:33:41;101699.63;;;7.62;76.26
68230;BME280;55048;52.220;5.160;2023-02-01T10:36:22;101726.47;;;7.93;75.97
68230;BME280;55048;52.220;5.160;2023-02-01T10:38:49;101601.47;;;7.22;75.31
68230;BME280;55048;52.220;5.160;2023-02-01T10:41:17;101721.03;;;8.08;74.62
68230;BME280;55048;52.220;5.160;2023-02-01T10:43:47;101691.03;;;8.01;74.17
68230;BME280;55048;52.220;5.160;2023-02-01T10:46:13;101721.69;;;8.24;73.96
68230;BME280;55048;52.220;5.160;2023-02-01T10:48:38;101704.97;;;8.23;73.27
68230;BME280;55048;52.220;5.160;2023-02-01T10:51:12;101677.88;;;8.21;73.30
68230;BME280;55048;52.220;5.160;2023-02-01T10:53:55;101722.41;;;8.46;72.75
68230;BME280;55048;52.220;5.160;2023-02-01T10:56:25;101728.06;;;8.36;72.78
68230;BME280;55048;52.220;5.160;2023-02-01T10:58:51;101748.09;;;8.45;72.99
68230;BME280;55048;52.220;5.160;2023-02-01T11:01:39;101366.31;;;5.97;73.40
68230;BME280;55048;52.220;5.160;2023-02-01T11:04:09;101712.53;;;8.26;73.69
68230;BME280;55048;52.220;5.160;2023-02-01T11:06:45;101726.44;;;8.35;74.16
68230;BME280;55048;52.220;5.160;2023-02-01T11:09:19;101662.69;;;7.88;75.11
68230;BME280;55048;52.220;5.160;2023-02-01T11:14:18;101608.81;;;7.68;75.22
68230;BME280;55048;52.220;5.160;2023-02-01T11:16:49;101682.94;;;8.09;75.39
68230;BME280;55048;52.220;5.160;2023-02-01T11:19:16;101624.97;;;7.80;74.55
68230;BME280;55048;52.220;5.160;2023-02-01T11:21:43;101695.41;;;8.29;74.66
68230;BME280;55048;52.220;5.160;2023-02-01T11:24:22;101713.22;;;8.48;74.44
68230;BME280;55048;52.220;5.160;2023-02-01T11:26:49;101634.59;;;8.01;73.84
68230;BME280;55048;52.220;5.160;2023-02-01T11:29:17;101716.50;;;8.57;73.62
68230;BME280;55048;52.220;5.160;2023-02-01T11:31:47;101714.28;;;8.60;73.21
68230;BME280;55048;52.220;5.160;2023-02-01T11:34:34;101714.06;;;8.49;73.58
68230;BME280;55048;52.220;5.160;2023-02-01T11:37:01;101703.47;;;8.55;73.33
68230;BME280;55048;52.220;5.160;2023-02-01T11:39:30;101634.22;;;8.10;73.31
68230;BME280;55048;52.220;5.160;2023-02-01T11:42:11;101709.41;;;8.64;73.03
68230;BME280;55048;52.220;5.160;2023-02-01T11:44:40;101682.44;;;8.67;72.69
68230;BME280;55048;52.220;5.160;2023-02-01T11:47:19;101693.28;;;8.72;71.92
68230;BME280;55048;52.220;5.160;2023-02-01T11:49:45;101640.44;;;8.44;72.17
68230;BME280;55048;52.220;5.160;2023-02-01T11:55:17;101684.31;;;8.80;72.20
68230;BME280;55048;52.220;5.160;2023-02-01T11:58:12;101682.69;;;8.79;71.39
68230;BME280;55048;52.220;5.160;2023-02-01T12:01:04;101674.09;;;8.90;71.63
68230;BME280;55048;52.220;5.160;2023-02-01T12:14:59;101677.16;;;8.93;70.83
68230;BME280;55048;52.220;5.160;2023-02-01T12:20:35;101684.09;;;8.94;71.14
68230;BME280;55048;52.220;5.160;2023-02-01T12:34:17;101567.81;;;8.32;71.37
68230;BME280;55048;52.220;5.160;2023-02-01T12:37:02;101643.53;;;8.67;71.99
68230;BME280;55048;52.220;5.160;2023-02-01T12:39:37;101643.28;;;8.76;71.86
68230;BME280;55048;52.220;5.160;2023-02-01T12:42:20;101634.31;;;8.70;71.76
68230;BME280;55048;52.220;5.160;2023-02-01T12:44:59;101647.16;;;8.80;71.97
68230;BME280;55048;52.220;5.160;2023-02-01T12:47:35;101680.84;;;8.92;72.33
68230;BME280;55048;52.220;5.160;2023-02-01T12:50:05;101676.56;;;8.98;71.82
68230;BME280;55048;52.220;5.160;2023-02-01T12:52:51;101651.28;;;8.82;71.96
68230;BME280;55048;52.220;5.160;2023-02-01T12:55:22;101673.69;;;8.93;72.30
68230;BME280;55048;52.220;5.160;2023-02-01T12:57:55;101684.31;;;8.93;72.51
68230;BME280;55048;52.220;5.160;2023-02-01T13:00:44;101639.22;;;8.73;72.17
68230;BME280;55048;52.220;5.160;2023-02-01T13:05:56;101621.06;;;8.57;71.76
68230;BME280;55048;52.220;5.160;2023-02-01T13:08:29;101670.84;;;8.94;72.12
68230;BME280;55048;52.220;5.160;2023-02-01T13:11:07;101647.59;;;8.77;71.86
68230;BME280;55048;52.220;5.160;2023-02-01T13:14:23;101667.16;;;8.89;72.41
68230;BME280;55048;52.220;5.160;2023-02-01T13:16:45;101659.84;;;8.78;71.90
68230;BME280;55048;52.220;5.160;2023-02-01T13:19:28;101668.78;;;8.90;72.05
68230;BME280;55048;52.220;5.160;2023-02-01T13:22:12;101687.19;;;8.91;72.16
68230;BME280;55048;52.220;5.160;2023-02-01T13:24:45;101681.84;;;8.85;72.78
68230;BME280;55048;52.220;5.160;2023-02-01T13:27:13;101586.94;;;8.21;73.33
68230;BME280;55048;52.220;5.160;2023-02-01T13:29:57;101584.31;;;8.27;72.99
68230;BME280;55048;52.220;5.160;2023-02-01T13:32:43;101682.66;;;8.99;73.01
68230;BME280;55048;52.220;5.160;2023-02-01T13:35:19;101690.81;;;8.90;73.03
68230;BME280;55048;52.220;5.160;2023-02-01T13:40:31;101664.72;;;9.07;72.72
68230;BME280;55048;52.220;5.160;2023-02-01T13:43:06;101656.94;;;8.99;72.99
68230;BME280;55048;52.220;5.160;2023-02-01T13:45:36;101656.53;;;9.09;72.21
68230;BME280;55048;52.220;5.160;2023-02-01T13:48:17;101664.28;;;9.17;71.67
68230;BME280;55048;52.220;5.160;2023-02-01T13:50:50;101685.09;;;9.27;71.63
68230;BME280;55048;52.220;5.160;2023-02-01T13:53:28;101674.91;;;9.10;72.00
68230;BME280;55048;52.220;5.160;2023-02-01T13:56:16;101655.97;;;9.00;72.45
68230;BME280;55048;52.220;5.160;2023-02-01T13:58:43;101675.09;;;9.22;72.57
68230;BME280;55048;52.220;5.160;2023-02-01T14:09:15;101625.13;;;8.92;72.27
68230;BME280;55048;52.220;5.160;2023-02-01T14:11:51;101683.88;;;9.29;72.13
68230;BME280;55048;52.220;5.160;2023-02-01T14:19:31;101645.97;;;8.96;71.92
68230;BME280;55048;52.220;5.160;2023-02-01T14:24:53;101656.34;;;9.10;72.51
68230;BME280;55048;52.220;5.160;2023-02-01T14:27:25;101675.50;;;9.26;72.73
68230;BME280;55048;52.220;5.160;2023-02-01T14:29:55;101630.84;;;8.76;73.25
68230;BME280;55048;52.220;5.160;2023-02-01T14:32:26;101602.31;;;8.78;73.05
68230;BME280;55048;52.220;5.160;2023-02-01T14:34:59;101660.66;;;8.78;73.47
68230;BME280;55048;52.220;5.160;2023-02-01T14:37:30;101650.22;;;9.10;72.99
68230;BME280;55048;52.220;5.160;2023-02-01T14:40:03;101520.94;;;8.39;73.37
68230;BME280;55048;52.220;5.160;2023-02-01T14:42:39;101673.25;;;9.29;73.16
68230;BME280;55048;52.220;5.160;2023-02-01T14:47:42;101681.00;;;9.31;73.20
68230;BME280;55048;52.220;5.160;2023-02-01T14:52:51;101611.88;;;8.79;73.36
68230;BME280;55048;52.220;5.160;2023-02-01T14:57:59;101648.00;;;8.87;73.79
68230;BME280;55048;52.220;5.160;2023-02-01T15:00:30;101668.19;;;9.01;73.80
68230;BME280;55048;52.220;5.160;2023-02-01T15:03:19;101710.84;;;9.19;73.96
68230;BME280;55048;52.220;5.160;2023-02-01T15:05:55;101656.16;;;8.79;74.25
68230;BME280;55048;52.220;5.160;2023-02-01T15:08:26;101639.84;;;8.75;73.91